EWG7815 LICC-EDDH
Flight info
| Callsign | EWG7815 |
|---|---|
| Flight time | 2h 32m |
| Altitude | 36000 |
| Route | BUDIN DCT BRENO DCT KONIN DCT ERNAS M726 KEMES DCT GASKA DCT ELNAT P605 NOLGO NOLGO6A |
| Aircraft | A320/M-SDE2E3FGIJ1RWXY/HB1 |
Departure
| Time | 2026-05-05 16:52 |
|---|---|
| Airport | Catania-Fontanarossa Airport (LICC) |
Arrival
| Time | 2026-05-05 19:24 |
|---|---|
| Airport | Hamburg Helmut Schmidt Airport (EDDH) |
| Time | Latitude | Longitude | Altitude | Speed | Heading |
|---|---|---|---|---|---|
| 2026-05-05 16:44 | 37.46889 | 15.06190 | 31 ft | 0 kts | 353° |
| 2026-05-05 16:45 | 37.46885 | 15.06191 | 31 ft | 3 kts | 353° |
| 2026-05-05 16:45 | 37.46859 | 15.06194 | 30 ft | 4 kts | 354° |
| 2026-05-05 16:45 | 37.46836 | 15.06197 | 31 ft | 3 kts | 354° |
| 2026-05-05 16:46 | 37.46815 | 15.06207 | 31 ft | 4 kts | 298° |
| 2026-05-05 16:46 | 37.46810 | 15.06236 | 32 ft | 2 kts | 264° |
| 2026-05-05 16:46 | 37.46809 | 15.06219 | 29 ft | 4 kts | 264° |
| 2026-05-05 16:46 | 37.46806 | 15.06191 | 30 ft | 0 kts | 264° |
| 2026-05-05 16:48 | 37.46806 | 15.06185 | 31 ft | 2 kts | 264° |
| 2026-05-05 16:49 | 37.46802 | 15.06134 | 32 ft | 9 kts | 264° |
| 2026-05-05 16:49 | 37.46793 | 15.06026 | 30 ft | 15 kts | 264° |
| 2026-05-05 16:49 | 37.46783 | 15.05897 | 32 ft | 14 kts | 264° |
| 2026-05-05 16:49 | 37.46774 | 15.05780 | 32 ft | 13 kts | 264° |
| 2026-05-05 16:50 | 37.46765 | 15.05674 | 32 ft | 13 kts | 264° |
| 2026-05-05 16:50 | 37.46753 | 15.05522 | 32 ft | 22 kts | 263° |
| 2026-05-05 16:50 | 37.46719 | 15.05320 | 30 ft | 22 kts | 232° |
| 2026-05-05 16:50 | 37.46628 | 15.05212 | 34 ft | 15 kts | 221° |
| 2026-05-05 16:51 | 37.46562 | 15.05242 | 35 ft | 12 kts | 100° |
| 2026-05-05 16:51 | 37.46576 | 15.05416 | 34 ft | 42 kts | 84° |
| 2026-05-05 16:51 | 37.46632 | 15.06087 | 35 ft | 109 kts | 84° |
| 2026-05-05 16:51 | 37.46732 | 15.07260 | 124 ft | 152 kts | 83° |
| 2026-05-05 16:52 | 37.46825 | 15.08603 | 822 ft | 157 kts | 85° |
| 2026-05-05 16:52 | 37.46975 | 15.09961 | 1544 ft | 154 kts | 79° |
| 2026-05-05 16:52 | 37.47230 | 15.11242 | 2206 ft | 155 kts | 78° |
| 2026-05-05 16:52 | 37.47444 | 15.12666 | 2534 ft | 176 kts | 81° |
| 2026-05-05 16:53 | 37.47656 | 15.14278 | 2817 ft | 198 kts | 82° |
| 2026-05-05 16:53 | 37.47892 | 15.16081 | 3068 ft | 220 kts | 81° |
| 2026-05-05 16:53 | 37.48156 | 15.18091 | 3432 ft | 244 kts | 81° |
| 2026-05-05 16:53 | 37.48447 | 15.20255 | 4122 ft | 254 kts | 81° |
| 2026-05-05 16:54 | 37.48747 | 15.22461 | 4952 ft | 258 kts | 80° |
| 2026-05-05 16:54 | 37.49053 | 15.24705 | 5795 ft | 262 kts | 79° |
| 2026-05-05 16:54 | 37.49488 | 15.26940 | 6637 ft | 265 kts | 68° |
| 2026-05-05 16:54 | 37.50400 | 15.28968 | 7371 ft | 271 kts | 50° |
| 2026-05-05 16:55 | 37.51795 | 15.30632 | 7945 ft | 281 kts | 31° |
| 2026-05-05 16:55 | 37.53478 | 15.31934 | 8680 ft | 287 kts | 30° |
| 2026-05-05 16:55 | 37.55172 | 15.33241 | 9425 ft | 292 kts | 28° |
| 2026-05-05 16:55 | 37.56921 | 15.34601 | 10168 ft | 297 kts | 29° |
| 2026-05-05 16:56 | 37.58730 | 15.36012 | 10550 ft | 317 kts | 30° |
| 2026-05-05 16:56 | 37.60671 | 15.37531 | 10793 ft | 339 kts | 30° |
| 2026-05-05 16:56 | 37.62704 | 15.39125 | 11339 ft | 348 kts | 30° |
| 2026-05-05 16:56 | 37.64772 | 15.40752 | 12033 ft | 353 kts | 30° |
| 2026-05-05 16:57 | 37.66872 | 15.42409 | 12713 ft | 358 kts | 29° |
| 2026-05-05 16:57 | 37.69086 | 15.43844 | 13378 ft | 359 kts | 17° |
| 2026-05-05 16:57 | 37.71503 | 15.44606 | 14021 ft | 358 kts | 3° |
| 2026-05-05 16:57 | 37.73988 | 15.44642 | 14615 ft | 357 kts | 350° |
| 2026-05-05 16:58 | 37.76409 | 15.43967 | 15218 ft | 356 kts | 337° |
| 2026-05-05 16:58 | 37.78718 | 15.42821 | 15839 ft | 358 kts | 335° |
| 2026-05-05 16:58 | 37.81037 | 15.41651 | 16460 ft | 361 kts | 335° |
| 2026-05-05 16:58 | 37.83379 | 15.40476 | 17074 ft | 364 kts | 335° |
| 2026-05-05 16:59 | 37.85745 | 15.39291 | 17679 ft | 367 kts | 335° |
| 2026-05-05 16:59 | 37.88131 | 15.38097 | 18286 ft | 370 kts | 335° |
| 2026-05-05 16:59 | 37.90533 | 15.36895 | 18811 ft | 373 kts | 335° |
| 2026-05-05 16:59 | 37.92958 | 15.35680 | 19323 ft | 376 kts | 335° |
| 2026-05-05 17:00 | 37.95364 | 15.34473 | 19812 ft | 379 kts | 335° |
| 2026-05-05 17:00 | 37.97824 | 15.33238 | 20333 ft | 381 kts | 335° |
| 2026-05-05 17:00 | 38.00304 | 15.31995 | 20834 ft | 384 kts | 335° |
| 2026-05-05 17:00 | 38.02801 | 15.30742 | 21317 ft | 388 kts | 335° |
| 2026-05-05 17:01 | 38.05314 | 15.29477 | 21789 ft | 391 kts | 334° |
| 2026-05-05 17:01 | 38.07848 | 15.28196 | 22232 ft | 394 kts | 334° |
| 2026-05-05 17:01 | 38.10400 | 15.26907 | 22681 ft | 395 kts | 334° |
| 2026-05-05 17:01 | 38.12966 | 15.25613 | 23098 ft | 398 kts | 334° |
| 2026-05-05 17:02 | 38.15549 | 15.24311 | 23573 ft | 401 kts | 334° |
| 2026-05-05 17:02 | 38.18149 | 15.23000 | 23967 ft | 403 kts | 334° |
| 2026-05-05 17:02 | 38.20759 | 15.21681 | 24370 ft | 405 kts | 334° |
| 2026-05-05 17:02 | 38.23378 | 15.20354 | 24769 ft | 406 kts | 334° |
| 2026-05-05 17:03 | 38.26008 | 15.19020 | 25172 ft | 407 kts | 334° |
| 2026-05-05 17:03 | 38.28642 | 15.17683 | 25569 ft | 408 kts | 334° |
| 2026-05-05 17:03 | 38.31285 | 15.16338 | 25960 ft | 409 kts | 334° |
| 2026-05-05 17:03 | 38.33901 | 15.15006 | 26338 ft | 411 kts | 334° |
| 2026-05-05 17:04 | 38.36560 | 15.13652 | 26745 ft | 412 kts | 334° |
| 2026-05-05 17:04 | 38.39228 | 15.12295 | 27096 ft | 414 kts | 334° |
| 2026-05-05 17:04 | 38.41909 | 15.10930 | 27455 ft | 416 kts | 334° |
| 2026-05-05 17:04 | 38.44602 | 15.09558 | 27824 ft | 417 kts | 334° |
| 2026-05-05 17:05 | 38.47305 | 15.08187 | 28185 ft | 419 kts | 335° |
| 2026-05-05 17:05 | 38.50114 | 15.07066 | 28538 ft | 423 kts | 339° |
| 2026-05-05 17:05 | 38.52944 | 15.06001 | 28886 ft | 425 kts | 339° |
| 2026-05-05 17:05 | 38.55779 | 15.04933 | 29224 ft | 426 kts | 339° |
| 2026-05-05 17:06 | 38.58626 | 15.03856 | 29553 ft | 427 kts | 339° |
| 2026-05-05 17:06 | 38.61445 | 15.02788 | 29882 ft | 429 kts | 339° |
| 2026-05-05 17:06 | 38.64314 | 15.01697 | 30163 ft | 431 kts | 339° |
| 2026-05-05 17:06 | 38.67185 | 15.00599 | 30419 ft | 432 kts | 339° |
| 2026-05-05 17:07 | 38.70074 | 14.99491 | 30682 ft | 433 kts | 339° |
| 2026-05-05 17:07 | 38.72961 | 14.98385 | 30942 ft | 434 kts | 339° |
| 2026-05-05 17:07 | 38.75863 | 14.97277 | 31205 ft | 435 kts | 339° |
| 2026-05-05 17:07 | 38.78760 | 14.96174 | 31570 ft | 434 kts | 339° |
| 2026-05-05 17:08 | 38.81646 | 14.95075 | 31962 ft | 432 kts | 339° |
| 2026-05-05 17:08 | 38.84523 | 14.93981 | 32351 ft | 430 kts | 338° |
| 2026-05-05 17:08 | 38.87392 | 14.92890 | 32722 ft | 428 kts | 338° |
| 2026-05-05 17:08 | 38.90245 | 14.91800 | 33072 ft | 427 kts | 338° |
| 2026-05-05 17:09 | 38.93088 | 14.90708 | 33383 ft | 426 kts | 338° |
| 2026-05-05 17:09 | 38.95932 | 14.89613 | 33726 ft | 425 kts | 338° |
| 2026-05-05 17:09 | 38.98765 | 14.88524 | 34075 ft | 424 kts | 338° |
| 2026-05-05 17:09 | 39.01588 | 14.87441 | 34378 ft | 423 kts | 338° |
| 2026-05-05 17:10 | 39.04401 | 14.86360 | 34674 ft | 422 kts | 338° |
| 2026-05-05 17:10 | 39.07216 | 14.85279 | 34946 ft | 421 kts | 338° |
| 2026-05-05 17:10 | 39.10017 | 14.84202 | 35247 ft | 420 kts | 338° |
| 2026-05-05 17:10 | 39.12817 | 14.83123 | 35514 ft | 419 kts | 338° |
| 2026-05-05 17:11 | 39.15609 | 14.82046 | 35775 ft | 418 kts | 338° |
| 2026-05-05 17:11 | 39.18394 | 14.80970 | 36007 ft | 418 kts | 338° |
| 2026-05-05 17:11 | 39.23935 | 14.78822 | 36064 ft | 414 kts | 338° |
| 2026-05-05 17:12 | 39.29453 | 14.76687 | 36069 ft | 413 kts | 338° |
| 2026-05-05 17:12 | 39.34921 | 14.74564 | 36067 ft | 413 kts | 338° |
| 2026-05-05 17:13 | 39.40461 | 14.72411 | 36066 ft | 413 kts | 338° |
| 2026-05-05 17:13 | 39.45925 | 14.70283 | 36064 ft | 413 kts | 338° |
| 2026-05-05 17:14 | 39.51421 | 14.68141 | 36061 ft | 412 kts | 338° |
| 2026-05-05 17:14 | 39.56916 | 14.65991 | 36066 ft | 413 kts | 338° |
| 2026-05-05 17:15 | 39.62420 | 14.63844 | 36057 ft | 413 kts | 338° |
| 2026-05-05 17:15 | 39.67925 | 14.61686 | 36056 ft | 413 kts | 338° |
| 2026-05-05 17:16 | 39.73418 | 14.59532 | 36057 ft | 414 kts | 338° |
| 2026-05-05 17:16 | 39.78966 | 14.57351 | 36055 ft | 414 kts | 338° |
| 2026-05-05 17:17 | 39.84447 | 14.55190 | 36057 ft | 414 kts | 338° |
| 2026-05-05 17:17 | 39.89959 | 14.53015 | 36054 ft | 414 kts | 338° |
| 2026-05-05 17:18 | 39.95486 | 14.50829 | 36063 ft | 414 kts | 338° |
| 2026-05-05 17:18 | 40.01010 | 14.48648 | 36064 ft | 414 kts | 338° |
| 2026-05-05 17:19 | 40.06528 | 14.46457 | 36065 ft | 414 kts | 337° |
| 2026-05-05 17:19 | 40.12044 | 14.44260 | 36061 ft | 415 kts | 338° |
| 2026-05-05 17:20 | 40.17569 | 14.42065 | 36061 ft | 415 kts | 338° |
| 2026-05-05 17:20 | 40.23085 | 14.39867 | 36076 ft | 415 kts | 337° |
| 2026-05-05 17:21 | 40.28580 | 14.37672 | 36078 ft | 415 kts | 337° |
| 2026-05-05 17:22 | 40.36874 | 14.34366 | 36075 ft | 415 kts | 337° |
| 2026-05-05 17:22 | 40.42399 | 14.32150 | 36078 ft | 415 kts | 337° |
| 2026-05-05 17:23 | 40.47920 | 14.29929 | 36082 ft | 415 kts | 337° |
| 2026-05-05 17:23 | 40.53454 | 14.27701 | 36071 ft | 416 kts | 337° |
| 2026-05-05 17:24 | 40.58983 | 14.25474 | 36069 ft | 416 kts | 337° |
| 2026-05-05 17:24 | 40.64521 | 14.23241 | 36073 ft | 416 kts | 337° |
| 2026-05-05 17:25 | 40.70068 | 14.20997 | 36088 ft | 416 kts | 337° |
| 2026-05-05 17:25 | 40.75599 | 14.18757 | 36080 ft | 416 kts | 337° |
| 2026-05-05 17:26 | 40.81116 | 14.16517 | 36077 ft | 417 kts | 337° |
| 2026-05-05 17:26 | 40.86661 | 14.14265 | 36074 ft | 417 kts | 337° |
| 2026-05-05 17:27 | 40.92211 | 14.12012 | 36082 ft | 417 kts | 337° |
| 2026-05-05 17:27 | 40.97763 | 14.09747 | 36109 ft | 417 kts | 336° |
| 2026-05-05 17:28 | 41.03312 | 14.07474 | 36103 ft | 417 kts | 336° |
| 2026-05-05 17:28 | 41.08818 | 14.05221 | 36077 ft | 417 kts | 336° |
| 2026-05-05 17:29 | 41.14363 | 14.02955 | 36091 ft | 417 kts | 336° |
| 2026-05-05 17:29 | 41.19908 | 14.00678 | 36086 ft | 417 kts | 336° |
| 2026-05-05 17:30 | 41.25452 | 13.98393 | 36077 ft | 417 kts | 336° |
| 2026-05-05 17:30 | 41.30995 | 13.96109 | 36080 ft | 417 kts | 336° |
| 2026-05-05 17:31 | 41.36544 | 13.93811 | 36088 ft | 417 kts | 336° |
| 2026-05-05 17:31 | 41.42088 | 13.91515 | 36079 ft | 417 kts | 336° |
| 2026-05-05 17:32 | 41.46731 | 13.89590 | 36073 ft | 417 kts | 336° |
| 2026-05-05 17:32 | 41.52239 | 13.87312 | 36066 ft | 417 kts | 336° |
| 2026-05-05 17:33 | 41.57778 | 13.85010 | 36084 ft | 417 kts | 335° |
| 2026-05-05 17:33 | 41.63334 | 13.82689 | 36067 ft | 417 kts | 335° |
| 2026-05-05 17:34 | 41.68872 | 13.80373 | 36063 ft | 417 kts | 335° |
| 2026-05-05 17:34 | 41.74418 | 13.78057 | 36056 ft | 417 kts | 335° |
| 2026-05-05 17:35 | 41.79930 | 13.75752 | 36058 ft | 417 kts | 335° |
| 2026-05-05 17:35 | 41.85477 | 13.73427 | 36050 ft | 418 kts | 335° |
| 2026-05-05 17:36 | 41.91025 | 13.71092 | 36041 ft | 418 kts | 335° |
| 2026-05-05 17:36 | 41.96582 | 13.68748 | 36033 ft | 418 kts | 335° |
| 2026-05-05 17:37 | 42.02128 | 13.66417 | 36034 ft | 418 kts | 335° |
| 2026-05-05 17:37 | 42.07676 | 13.64074 | 36026 ft | 418 kts | 335° |
| 2026-05-05 17:38 | 42.13222 | 13.61722 | 36030 ft | 418 kts | 335° |
| 2026-05-05 17:38 | 42.18727 | 13.59383 | 36023 ft | 418 kts | 335° |
| 2026-05-05 17:39 | 42.24276 | 13.57025 | 36046 ft | 418 kts | 335° |
| 2026-05-05 17:39 | 42.29864 | 13.54648 | 36040 ft | 418 kts | 335° |
| 2026-05-05 17:40 | 42.35378 | 13.52293 | 36032 ft | 418 kts | 335° |
| 2026-05-05 17:40 | 42.40924 | 13.49920 | 36024 ft | 418 kts | 335° |
| 2026-05-05 17:41 | 42.46468 | 13.47538 | 36039 ft | 418 kts | 335° |
| 2026-05-05 17:41 | 42.52027 | 13.45159 | 36023 ft | 419 kts | 335° |
| 2026-05-05 17:42 | 42.57590 | 13.42779 | 35996 ft | 419 kts | 335° |
| 2026-05-05 17:42 | 42.63159 | 13.40383 | 36017 ft | 420 kts | 335° |
| 2026-05-05 17:43 | 42.68730 | 13.37968 | 36021 ft | 420 kts | 335° |
| 2026-05-05 17:43 | 42.74303 | 13.35551 | 36032 ft | 421 kts | 335° |
| 2026-05-05 17:44 | 42.79876 | 13.33135 | 36026 ft | 420 kts | 335° |
| 2026-05-05 17:44 | 42.85448 | 13.30734 | 36025 ft | 420 kts | 335° |
| 2026-05-05 17:45 | 42.90998 | 13.28329 | 36015 ft | 421 kts | 335° |
| 2026-05-05 17:45 | 42.96571 | 13.25902 | 36016 ft | 420 kts | 335° |
| 2026-05-05 17:46 | 43.02139 | 13.23472 | 36016 ft | 420 kts | 335° |
| 2026-05-05 17:46 | 43.07706 | 13.21040 | 36023 ft | 420 kts | 335° |
| 2026-05-05 17:47 | 43.13274 | 13.18600 | 36031 ft | 419 kts | 335° |
| 2026-05-05 17:47 | 43.18830 | 13.16163 | 36025 ft | 419 kts | 335° |
| 2026-05-05 17:48 | 43.24379 | 13.13715 | 36017 ft | 419 kts | 335° |
| 2026-05-05 17:48 | 43.29924 | 13.11266 | 36019 ft | 419 kts | 335° |
| 2026-05-05 17:49 | 43.35451 | 13.08830 | 35997 ft | 419 kts | 335° |
| 2026-05-05 17:49 | 43.41017 | 13.06369 | 35983 ft | 420 kts | 335° |
| 2026-05-05 17:50 | 43.46593 | 13.03902 | 35986 ft | 421 kts | 335° |
| 2026-05-05 17:50 | 43.52179 | 13.01435 | 35993 ft | 422 kts | 335° |
| 2026-05-05 17:51 | 43.57765 | 12.98954 | 35985 ft | 422 kts | 335° |
| 2026-05-05 17:51 | 43.63344 | 12.96459 | 35983 ft | 422 kts | 334° |
| 2026-05-05 17:52 | 43.68937 | 12.93962 | 35999 ft | 422 kts | 335° |
| 2026-05-05 17:52 | 43.74489 | 12.91483 | 35984 ft | 422 kts | 335° |
| 2026-05-05 17:53 | 43.80082 | 12.88981 | 35964 ft | 422 kts | 334° |
| 2026-05-05 17:53 | 43.85671 | 12.86463 | 35964 ft | 422 kts | 334° |
| 2026-05-05 17:54 | 43.91267 | 12.83935 | 35980 ft | 423 kts | 334° |
| 2026-05-05 17:54 | 43.96863 | 12.81412 | 35970 ft | 423 kts | 334° |
| 2026-05-05 17:55 | 44.02463 | 12.78887 | 35966 ft | 423 kts | 334° |
| 2026-05-05 17:55 | 44.08061 | 12.76351 | 35969 ft | 423 kts | 334° |
| 2026-05-05 17:56 | 44.13667 | 12.73806 | 35963 ft | 424 kts | 334° |
| 2026-05-05 17:56 | 44.19282 | 12.71247 | 35960 ft | 424 kts | 334° |
| 2026-05-05 17:57 | 44.24897 | 12.68692 | 35960 ft | 425 kts | 334° |
| 2026-05-05 17:57 | 44.30513 | 12.66139 | 35975 ft | 425 kts | 334° |
| 2026-05-05 17:58 | 44.36097 | 12.63591 | 35971 ft | 425 kts | 334° |
| 2026-05-05 17:58 | 44.41719 | 12.61003 | 35967 ft | 425 kts | 334° |
| 2026-05-05 17:59 | 44.47342 | 12.58412 | 35965 ft | 425 kts | 334° |
| 2026-05-05 17:59 | 44.52972 | 12.55834 | 35971 ft | 425 kts | 334° |
| 2026-05-05 18:00 | 44.58599 | 12.53252 | 35970 ft | 425 kts | 334° |
| 2026-05-05 18:00 | 44.64222 | 12.50650 | 35971 ft | 426 kts | 334° |
| 2026-05-05 18:01 | 44.69855 | 12.48040 | 35966 ft | 427 kts | 334° |
| 2026-05-05 18:01 | 44.75504 | 12.45425 | 35971 ft | 427 kts | 334° |
| 2026-05-05 18:02 | 44.81155 | 12.42799 | 35970 ft | 428 kts | 334° |
| 2026-05-05 18:02 | 44.86811 | 12.40156 | 35974 ft | 428 kts | 334° |
| 2026-05-05 18:03 | 44.92484 | 12.37514 | 35987 ft | 429 kts | 335° |
| 2026-05-05 18:03 | 44.98114 | 12.34876 | 35983 ft | 429 kts | 335° |
| 2026-05-05 18:04 | 45.03788 | 12.32216 | 35992 ft | 429 kts | 334° |
| 2026-05-05 18:04 | 45.09465 | 12.29554 | 35983 ft | 430 kts | 334° |
| 2026-05-05 18:05 | 45.15146 | 12.26871 | 35988 ft | 431 kts | 335° |
| 2026-05-05 18:05 | 45.20849 | 12.24176 | 35987 ft | 432 kts | 335° |
| 2026-05-05 18:06 | 45.26560 | 12.21481 | 35984 ft | 433 kts | 335° |
| 2026-05-05 18:06 | 45.32282 | 12.18780 | 35998 ft | 433 kts | 335° |
| 2026-05-05 18:07 | 45.38009 | 12.16061 | 36002 ft | 434 kts | 335° |
| 2026-05-05 18:07 | 45.43744 | 12.13324 | 36000 ft | 435 kts | 335° |
| 2026-05-05 18:08 | 45.49460 | 12.10603 | 35998 ft | 436 kts | 335° |
| 2026-05-05 18:08 | 45.55266 | 12.07841 | 35985 ft | 438 kts | 336° |
| 2026-05-05 18:09 | 45.61016 | 12.05085 | 35978 ft | 439 kts | 336° |
| 2026-05-05 18:09 | 45.66814 | 12.02296 | 35981 ft | 440 kts | 336° |
| 2026-05-05 18:10 | 45.72626 | 11.99504 | 36003 ft | 440 kts | 336° |
| 2026-05-05 18:10 | 45.78439 | 11.96702 | 36010 ft | 441 kts | 336° |
| 2026-05-05 18:11 | 45.84265 | 11.93885 | 36010 ft | 442 kts | 336° |
| 2026-05-05 18:11 | 45.90105 | 11.91061 | 36012 ft | 443 kts | 336° |
| 2026-05-05 18:12 | 45.95953 | 11.88231 | 36030 ft | 444 kts | 336° |
| 2026-05-05 18:12 | 46.01814 | 11.85380 | 36008 ft | 445 kts | 336° |
| 2026-05-05 18:13 | 46.07648 | 11.82536 | 36001 ft | 446 kts | 336° |
| 2026-05-05 18:13 | 46.13539 | 11.79662 | 35990 ft | 447 kts | 336° |
| 2026-05-05 18:14 | 46.19433 | 11.76776 | 35998 ft | 448 kts | 336° |
| 2026-05-05 18:14 | 46.25341 | 11.73882 | 35992 ft | 448 kts | 336° |
| 2026-05-05 18:15 | 46.31246 | 11.70978 | 35990 ft | 448 kts | 336° |
| 2026-05-05 18:15 | 46.37155 | 11.68063 | 35999 ft | 448 kts | 336° |
| 2026-05-05 18:16 | 46.43067 | 11.65141 | 35958 ft | 449 kts | 336° |
| 2026-05-05 18:16 | 46.48955 | 11.62232 | 35946 ft | 450 kts | 336° |
| 2026-05-05 18:17 | 46.54885 | 11.59284 | 35947 ft | 451 kts | 336° |
| 2026-05-05 18:17 | 46.60826 | 11.56323 | 35944 ft | 451 kts | 336° |
| 2026-05-05 18:18 | 46.66774 | 11.53364 | 35941 ft | 451 kts | 336° |
| 2026-05-05 18:18 | 46.72720 | 11.50397 | 35949 ft | 452 kts | 336° |
| 2026-05-05 18:19 | 46.77656 | 11.47921 | 35949 ft | 452 kts | 336° |
| 2026-05-05 18:19 | 46.84566 | 11.44452 | 35954 ft | 452 kts | 335° |
| 2026-05-05 18:20 | 46.89525 | 11.41959 | 35941 ft | 453 kts | 336° |
| 2026-05-05 18:20 | 46.95502 | 11.38967 | 35909 ft | 455 kts | 339° |
| 2026-05-05 18:21 | 47.01829 | 11.37620 | 35888 ft | 465 kts | 356° |
| 2026-05-05 18:21 | 47.08325 | 11.37578 | 35877 ft | 466 kts | 355° |
| 2026-05-05 18:22 | 47.14813 | 11.37521 | 35841 ft | 466 kts | 355° |
| 2026-05-05 18:22 | 47.21306 | 11.37454 | 35852 ft | 467 kts | 355° |
| 2026-05-05 18:23 | 47.27808 | 11.37395 | 35867 ft | 468 kts | 355° |
| 2026-05-05 18:23 | 47.34321 | 11.37322 | 35855 ft | 468 kts | 355° |
| 2026-05-05 18:24 | 47.40795 | 11.37251 | 35850 ft | 469 kts | 355° |
| 2026-05-05 18:24 | 47.47316 | 11.37191 | 35844 ft | 469 kts | 355° |
| 2026-05-05 18:25 | 47.53843 | 11.37132 | 35836 ft | 469 kts | 355° |
| 2026-05-05 18:25 | 47.60377 | 11.37065 | 35834 ft | 470 kts | 355° |
| 2026-05-05 18:26 | 47.66933 | 11.36998 | 35851 ft | 471 kts | 355° |
| 2026-05-05 18:26 | 47.73497 | 11.36930 | 35835 ft | 472 kts | 355° |
| 2026-05-05 18:27 | 47.80080 | 11.36869 | 35829 ft | 473 kts | 355° |
| 2026-05-05 18:27 | 47.86607 | 11.36674 | 35827 ft | 470 kts | 350° |
| 2026-05-05 18:28 | 47.96405 | 11.35215 | 35832 ft | 470 kts | 350° |
| 2026-05-05 18:28 | 48.02865 | 11.34251 | 35831 ft | 470 kts | 350° |
| 2026-05-05 18:29 | 48.09373 | 11.33292 | 35831 ft | 470 kts | 350° |
| 2026-05-05 18:29 | 48.15876 | 11.32321 | 35834 ft | 469 kts | 351° |
| 2026-05-05 18:30 | 48.22377 | 11.31350 | 35833 ft | 469 kts | 351° |
| 2026-05-05 18:30 | 48.28875 | 11.30374 | 35831 ft | 469 kts | 350° |
| 2026-05-05 18:31 | 48.35369 | 11.29397 | 35831 ft | 469 kts | 351° |
| 2026-05-05 18:31 | 48.41868 | 11.28426 | 35826 ft | 469 kts | 351° |
| 2026-05-05 18:32 | 48.48374 | 11.27440 | 35849 ft | 469 kts | 351° |
| 2026-05-05 18:32 | 48.54824 | 11.26451 | 35828 ft | 469 kts | 351° |
| 2026-05-05 18:33 | 48.61328 | 11.25467 | 35818 ft | 469 kts | 351° |
| 2026-05-05 18:33 | 48.67828 | 11.24487 | 35834 ft | 470 kts | 351° |
| 2026-05-05 18:34 | 48.74327 | 11.23498 | 35835 ft | 470 kts | 351° |
| 2026-05-05 18:34 | 48.80836 | 11.22495 | 35831 ft | 470 kts | 351° |
| 2026-05-05 18:35 | 48.87367 | 11.21946 | 35829 ft | 471 kts | 358° |
| 2026-05-05 18:35 | 48.93929 | 11.21997 | 35826 ft | 471 kts | 358° |
| 2026-05-05 18:36 | 49.00491 | 11.22032 | 35829 ft | 471 kts | 358° |
| 2026-05-05 18:36 | 49.07049 | 11.22065 | 35828 ft | 471 kts | 358° |
| 2026-05-05 18:37 | 49.13609 | 11.22093 | 35828 ft | 471 kts | 358° |
| 2026-05-05 18:37 | 49.20164 | 11.22133 | 35822 ft | 471 kts | 358° |
| 2026-05-05 18:38 | 49.26671 | 11.22177 | 35832 ft | 470 kts | 359° |
| 2026-05-05 18:38 | 49.33217 | 11.22235 | 35835 ft | 470 kts | 359° |
| 2026-05-05 18:39 | 49.39765 | 11.22303 | 35837 ft | 470 kts | 359° |
| 2026-05-05 18:39 | 49.46309 | 11.22363 | 35858 ft | 469 kts | 359° |
| 2026-05-05 18:40 | 49.52780 | 11.21569 | 35855 ft | 466 kts | 344° |
| 2026-05-05 18:40 | 49.58730 | 11.17895 | 35844 ft | 459 kts | 326° |
| 2026-05-05 18:41 | 49.63891 | 11.12168 | 35833 ft | 456 kts | 320° |
| 2026-05-05 18:41 | 49.68927 | 11.06313 | 35818 ft | 456 kts | 320° |
| 2026-05-05 18:42 | 49.73997 | 11.00416 | 35819 ft | 456 kts | 320° |
| 2026-05-05 18:42 | 49.79064 | 10.94503 | 35817 ft | 456 kts | 320° |
| 2026-05-05 18:43 | 49.84134 | 10.88557 | 35839 ft | 456 kts | 320° |
| 2026-05-05 18:43 | 49.89192 | 10.82605 | 35820 ft | 457 kts | 320° |
| 2026-05-05 18:44 | 49.94262 | 10.76633 | 35818 ft | 457 kts | 320° |
| 2026-05-05 18:44 | 49.99300 | 10.70701 | 35813 ft | 457 kts | 320° |
| 2026-05-05 18:45 | 50.04374 | 10.64705 | 35808 ft | 457 kts | 320° |
| 2026-05-05 18:45 | 50.09440 | 10.58698 | 35813 ft | 458 kts | 320° |
| 2026-05-05 18:46 | 50.14502 | 10.52657 | 35811 ft | 458 kts | 320° |
| 2026-05-05 18:46 | 50.19536 | 10.46653 | 35799 ft | 459 kts | 320° |
| 2026-05-05 18:47 | 50.24615 | 10.40594 | 35800 ft | 459 kts | 320° |
| 2026-05-05 18:47 | 50.29720 | 10.34481 | 35801 ft | 459 kts | 320° |
| 2026-05-05 18:48 | 50.34812 | 10.28547 | 35798 ft | 461 kts | 326° |
| 2026-05-05 18:48 | 50.40610 | 10.24200 | 35799 ft | 463 kts | 335° |
| 2026-05-05 18:49 | 50.46535 | 10.20237 | 35815 ft | 464 kts | 339° |
| 2026-05-05 18:49 | 50.52863 | 10.18172 | 35805 ft | 466 kts | 349° |
| 2026-05-05 18:50 | 50.59257 | 10.16492 | 35802 ft | 466 kts | 349° |
| 2026-05-05 18:50 | 50.65672 | 10.14810 | 35801 ft | 466 kts | 349° |
| 2026-05-05 18:51 | 50.72076 | 10.13124 | 35795 ft | 467 kts | 349° |
| 2026-05-05 18:51 | 50.78482 | 10.11423 | 35796 ft | 467 kts | 349° |
| 2026-05-05 18:52 | 50.84844 | 10.09723 | 35801 ft | 467 kts | 349° |
| 2026-05-05 18:52 | 50.91254 | 10.08008 | 35801 ft | 467 kts | 349° |
| 2026-05-05 18:53 | 50.97673 | 10.06301 | 35795 ft | 467 kts | 349° |
| 2026-05-05 18:53 | 51.04090 | 10.04594 | 35795 ft | 468 kts | 349° |
| 2026-05-05 18:54 | 51.10502 | 10.02867 | 35799 ft | 468 kts | 349° |
| 2026-05-05 18:54 | 51.16930 | 10.01127 | 35818 ft | 468 kts | 349° |
| 2026-05-05 18:55 | 51.23354 | 9.99393 | 35804 ft | 468 kts | 349° |
| 2026-05-05 18:55 | 51.29786 | 9.97630 | 35805 ft | 468 kts | 348° |
| 2026-05-05 18:56 | 51.36208 | 9.95835 | 35802 ft | 469 kts | 348° |
| 2026-05-05 18:56 | 51.42597 | 9.94042 | 35811 ft | 469 kts | 348° |
| 2026-05-05 18:57 | 51.49025 | 9.92238 | 35815 ft | 469 kts | 348° |
| 2026-05-05 18:57 | 51.55450 | 9.90443 | 35815 ft | 469 kts | 348° |
| 2026-05-05 18:58 | 51.61883 | 9.88651 | 35819 ft | 469 kts | 348° |
| 2026-05-05 18:58 | 51.68301 | 9.86812 | 35822 ft | 468 kts | 347° |
| 2026-05-05 18:59 | 51.74687 | 9.84816 | 35821 ft | 467 kts | 346° |
| 2026-05-05 18:59 | 51.81068 | 9.82788 | 35828 ft | 467 kts | 346° |
| 2026-05-05 19:00 | 51.87506 | 9.81385 | 35845 ft | 470 kts | 358° |
| 2026-05-05 19:00 | 51.93995 | 9.82382 | 35843 ft | 471 kts | 5° |
| 2026-05-05 19:01 | 51.97251 | 9.83023 | 35741 ft | 472 kts | 5° |
| 2026-05-05 19:01 | 52.00508 | 9.83653 | 35354 ft | 470 kts | 5° |
| 2026-05-05 19:01 | 52.03757 | 9.84272 | 34762 ft | 468 kts | 5° |
| 2026-05-05 19:01 | 52.06994 | 9.84889 | 34167 ft | 467 kts | 5° |
| 2026-05-05 19:02 | 52.10228 | 9.85513 | 33525 ft | 467 kts | 6° |
| 2026-05-05 19:02 | 52.13447 | 9.86137 | 32941 ft | 464 kts | 5° |
| 2026-05-05 19:02 | 52.16642 | 9.86758 | 32347 ft | 462 kts | 5° |
| 2026-05-05 19:02 | 52.19817 | 9.87382 | 31746 ft | 459 kts | 5° |
| 2026-05-05 19:03 | 52.22984 | 9.88012 | 31223 ft | 456 kts | 5° |
| 2026-05-05 19:03 | 52.26098 | 9.88877 | 30685 ft | 454 kts | 13° |
| 2026-05-05 19:03 | 52.29136 | 9.90217 | 30106 ft | 452 kts | 14° |
| 2026-05-05 19:03 | 52.32169 | 9.91559 | 29425 ft | 451 kts | 14° |
| 2026-05-05 19:04 | 52.35196 | 9.92890 | 28733 ft | 449 kts | 13° |
| 2026-05-05 19:04 | 52.38210 | 9.94210 | 28044 ft | 448 kts | 13° |
| 2026-05-05 19:04 | 52.41215 | 9.95525 | 27377 ft | 446 kts | 13° |
| 2026-05-05 19:04 | 52.44204 | 9.96838 | 26730 ft | 444 kts | 13° |
| 2026-05-05 19:05 | 52.47174 | 9.98149 | 26092 ft | 441 kts | 13° |
| 2026-05-05 19:05 | 52.50128 | 9.99454 | 25467 ft | 439 kts | 14° |
| 2026-05-05 19:05 | 52.53070 | 10.00758 | 24856 ft | 437 kts | 14° |
| 2026-05-05 19:05 | 52.56003 | 10.02064 | 24259 ft | 434 kts | 14° |
| 2026-05-05 19:06 | 52.58908 | 10.03361 | 23688 ft | 431 kts | 13° |
| 2026-05-05 19:06 | 52.61795 | 10.04650 | 23035 ft | 429 kts | 13° |
| 2026-05-05 19:06 | 52.64667 | 10.05933 | 22360 ft | 426 kts | 13° |
| 2026-05-05 19:06 | 52.67518 | 10.07207 | 21694 ft | 424 kts | 14° |
| 2026-05-05 19:07 | 52.70354 | 10.08480 | 21050 ft | 422 kts | 14° |
| 2026-05-05 19:07 | 52.72228 | 10.09323 | 20629 ft | 420 kts | 14° |
| 2026-05-05 19:07 | 52.75039 | 10.10588 | 20027 ft | 418 kts | 14° |
| 2026-05-05 19:07 | 52.78792 | 10.11795 | 19220 ft | 413 kts | 2° |
| 2026-05-05 19:08 | 52.81650 | 10.11927 | 18630 ft | 410 kts | 0° |
| 2026-05-05 19:08 | 52.84493 | 10.12017 | 18030 ft | 407 kts | 0° |
| 2026-05-05 19:08 | 52.87322 | 10.12107 | 17359 ft | 405 kts | 0° |
| 2026-05-05 19:08 | 52.89223 | 10.12169 | 16915 ft | 404 kts | 0° |
| 2026-05-05 19:09 | 52.91986 | 10.12261 | 16277 ft | 402 kts | 0° |
| 2026-05-05 19:09 | 52.94767 | 10.12353 | 15637 ft | 395 kts | 0° |
| 2026-05-05 19:09 | 52.97493 | 10.12443 | 15010 ft | 379 kts | 360° |
| 2026-05-05 19:09 | 53.00044 | 10.12527 | 14412 ft | 365 kts | 0° |
| 2026-05-05 19:10 | 53.02537 | 10.12606 | 13816 ft | 353 kts | 359° |
| 2026-05-05 19:10 | 53.04960 | 10.12682 | 13168 ft | 343 kts | 360° |
| 2026-05-05 19:10 | 53.07312 | 10.12759 | 12510 ft | 334 kts | 0° |
| 2026-05-05 19:10 | 53.09606 | 10.12835 | 11868 ft | 326 kts | 360° |
| 2026-05-05 19:11 | 53.11851 | 10.12911 | 11240 ft | 319 kts | 359° |
| 2026-05-05 19:11 | 53.14047 | 10.12989 | 10624 ft | 313 kts | 360° |
| 2026-05-05 19:11 | 53.16220 | 10.13063 | 10074 ft | 313 kts | 359° |
| 2026-05-05 19:11 | 53.18362 | 10.13132 | 9906 ft | 303 kts | 359° |
| 2026-05-05 19:12 | 53.20423 | 10.13201 | 9894 ft | 288 kts | 360° |
| 2026-05-05 19:12 | 53.22372 | 10.13267 | 9897 ft | 273 kts | 359° |
| 2026-05-05 19:12 | 53.24232 | 10.13329 | 9898 ft | 263 kts | 359° |
| 2026-05-05 19:12 | 53.26060 | 10.13394 | 9826 ft | 263 kts | 359° |
| 2026-05-05 19:13 | 53.27884 | 10.13470 | 9564 ft | 261 kts | 0° |
| 2026-05-05 19:13 | 53.29690 | 10.13538 | 9302 ft | 259 kts | 360° |
| 2026-05-05 19:13 | 53.31465 | 10.13589 | 9051 ft | 257 kts | 359° |
| 2026-05-05 19:13 | 53.33243 | 10.13647 | 8785 ft | 255 kts | 359° |
| 2026-05-05 19:14 | 53.35035 | 10.13711 | 8527 ft | 254 kts | 0° |
| 2026-05-05 19:14 | 53.36774 | 10.13765 | 8272 ft | 253 kts | 359° |
| 2026-05-05 19:14 | 53.38521 | 10.13715 | 8013 ft | 249 kts | 348° |
| 2026-05-05 19:14 | 53.40071 | 10.12562 | 7762 ft | 244 kts | 317° |
| 2026-05-05 19:15 | 53.41024 | 10.10272 | 7508 ft | 241 kts | 286° |
| 2026-05-05 19:15 | 53.41334 | 10.07516 | 7259 ft | 242 kts | 275° |
| 2026-05-05 19:15 | 53.41502 | 10.04711 | 7014 ft | 241 kts | 275° |
| 2026-05-05 19:15 | 53.41650 | 10.01906 | 6764 ft | 241 kts | 274° |
| 2026-05-05 19:16 | 53.41789 | 9.99098 | 6517 ft | 242 kts | 274° |
| 2026-05-05 19:16 | 53.41923 | 9.96289 | 6274 ft | 242 kts | 274° |
| 2026-05-05 19:16 | 53.42053 | 9.93483 | 6017 ft | 241 kts | 274° |
| 2026-05-05 19:16 | 53.42179 | 9.90683 | 5751 ft | 241 kts | 274° |
| 2026-05-05 19:17 | 53.42301 | 9.87873 | 5491 ft | 241 kts | 274° |
| 2026-05-05 19:17 | 53.42420 | 9.85071 | 5235 ft | 240 kts | 274° |
| 2026-05-05 19:17 | 53.42535 | 9.82319 | 4984 ft | 241 kts | 275° |
| 2026-05-05 19:17 | 53.42644 | 9.79509 | 4732 ft | 240 kts | 274° |
| 2026-05-05 19:18 | 53.42751 | 9.76714 | 4466 ft | 241 kts | 275° |
| 2026-05-05 19:18 | 53.42940 | 9.73934 | 4204 ft | 239 kts | 290° |
| 2026-05-05 19:18 | 53.43814 | 9.71645 | 3942 ft | 233 kts | 323° |
| 2026-05-05 19:18 | 53.45235 | 9.70525 | 3692 ft | 224 kts | 354° |
| 2026-05-05 19:19 | 53.46762 | 9.70647 | 3454 ft | 218 kts | 12° |
| 2026-05-05 19:19 | 53.48239 | 9.71133 | 3312 ft | 215 kts | 15° |
| 2026-05-05 19:19 | 53.49594 | 9.72109 | 3187 ft | 209 kts | 38° |
| 2026-05-05 19:19 | 53.50592 | 9.73787 | 3082 ft | 199 kts | 51° |
| 2026-05-05 19:20 | 53.51460 | 9.75525 | 3011 ft | 187 kts | 51° |
| 2026-05-05 19:20 | 53.52275 | 9.77157 | 2978 ft | 179 kts | 51° |
| 2026-05-05 19:20 | 53.53055 | 9.78719 | 2804 ft | 175 kts | 51° |
| 2026-05-05 19:20 | 53.53830 | 9.80273 | 2582 ft | 172 kts | 51° |
| 2026-05-05 19:21 | 53.54587 | 9.81794 | 2366 ft | 167 kts | 51° |
| 2026-05-05 19:21 | 53.55322 | 9.83270 | 2132 ft | 160 kts | 51° |
| 2026-05-05 19:21 | 53.56015 | 9.84661 | 1919 ft | 149 kts | 51° |
| 2026-05-05 19:21 | 53.56652 | 9.85943 | 1757 ft | 137 kts | 51° |
| 2026-05-05 19:22 | 53.57246 | 9.87138 | 1550 ft | 131 kts | 52° |
| 2026-05-05 19:22 | 53.57829 | 9.88310 | 1368 ft | 130 kts | 51° |
| 2026-05-05 19:22 | 53.58405 | 9.89470 | 1181 ft | 129 kts | 51° |
| 2026-05-05 19:22 | 53.58981 | 9.90632 | 993 ft | 130 kts | 51° |
| 2026-05-05 19:23 | 53.59559 | 9.91796 | 816 ft | 128 kts | 51° |
| 2026-05-05 19:23 | 53.60128 | 9.92949 | 644 ft | 131 kts | 51° |
| 2026-05-05 19:23 | 53.60711 | 9.94127 | 448 ft | 130 kts | 51° |
| 2026-05-05 19:23 | 53.61293 | 9.95312 | 293 ft | 132 kts | 51° |
| 2026-05-05 19:24 | 53.61874 | 9.96470 | 117 ft | 129 kts | 51° |
| 2026-05-05 19:24 | 53.62427 | 9.97593 | 42 ft | 114 kts | 50° |
| 2026-05-05 19:24 | 53.62852 | 9.98445 | 44 ft | 75 kts | 50° |
| 2026-05-05 19:24 | 53.63105 | 9.98957 | 46 ft | 47 kts | 51° |
| 2026-05-05 19:25 | 53.63272 | 9.99319 | 47 ft | 26 kts | 63° |
| 2026-05-05 19:25 | 53.63288 | 9.99545 | 34 ft | 13 kts | 97° |
| 2026-05-05 19:25 | 53.63280 | 9.99637 | 48 ft | 5 kts | 99° |
| 2026-05-05 19:25 | 53.63275 | 9.99687 | 48 ft | 4 kts | 96° |
| 2026-05-05 19:26 | 53.63294 | 9.99791 | 47 ft | 12 kts | 56° |
| 2026-05-05 19:26 | 53.63353 | 9.99913 | 48 ft | 14 kts | 50° |
| 2026-05-05 19:26 | 53.63422 | 10.00054 | 48 ft | 16 kts | 56° |
| 2026-05-05 19:26 | 53.63397 | 10.00197 | 48 ft | 13 kts | 134° |
| 2026-05-05 19:27 | 53.63332 | 10.00237 | 48 ft | 3 kts | 151° |
| 2026-05-05 19:27 | 53.63327 | 10.00265 | 47 ft | 2 kts | 97° |
| 2026-05-05 19:27 | 53.63330 | 10.00328 | 48 ft | 6 kts | 86° |
| 2026-05-05 19:27 | 53.63331 | 10.00346 | 48 ft | 1 kts | 86° |
| 2026-05-05 19:28 | 53.63331 | 10.00348 | 48 ft | 0 kts | 86° |